createdAt,value
2018-11-26T00:00:42.014Z,37.97
2018-11-26T00:03:11.137Z,38.40
2018-11-26T00:05:39.834Z,36.77
2018-11-26T00:08:09.161Z,38.60
2018-11-26T00:10:48.791Z,37.93
2018-11-26T00:13:16.801Z,36.53
2018-11-26T00:15:44.873Z,38.00
2018-11-26T00:18:12.835Z,38.47
2018-11-26T00:20:40.832Z,38.23
2018-11-26T00:23:08.905Z,35.33
2018-11-26T00:25:43.645Z,37.47
2018-11-26T00:28:11.625Z,40.27
2018-11-26T00:30:39.605Z,38.13
2018-11-26T00:33:07.601Z,40.53
2018-11-26T00:35:35.545Z,40.70
2018-11-26T00:38:03.497Z,40.83
2018-11-26T00:40:31.450Z,41.20
2018-11-26T00:42:59.504Z,41.30
2018-11-26T00:45:27.477Z,39.20
2018-11-26T00:47:55.460Z,41.00
2018-11-26T00:50:23.417Z,43.20
2018-11-26T00:52:51.393Z,44.27
2018-11-26T00:55:19.370Z,43.87
2018-11-26T00:57:47.348Z,45.00
2018-11-26T01:00:15.697Z,44.87
2018-11-26T01:02:43.654Z,47.80
2018-11-26T01:05:29.655Z,48.00
2018-11-26T01:07:57.630Z,50.10
2018-11-26T01:10:25.620Z,48.70
2018-11-26T01:12:53.587Z,49.17
2018-11-26T01:15:21.704Z,47.40
2018-11-26T01:17:49.712Z,48.37
2018-11-26T01:20:17.694Z,48.80
2018-11-26T01:22:45.666Z,48.90
2018-11-26T01:25:13.613Z,49.70
2018-11-26T01:27:41.585Z,49.40
2018-11-26T01:30:09.889Z,47.77
2018-11-26T01:32:37.930Z,48.10
2018-11-26T01:35:07.149Z,49.53
2018-11-26T01:37:35.161Z,48.97
2018-11-26T01:40:03.157Z,48.90
2018-11-26T01:42:31.141Z,50.37
2018-11-26T01:44:59.308Z,48.87
2018-11-26T01:47:27.269Z,48.00
2018-11-26T01:49:55.267Z,46.97
2018-11-26T01:52:23.290Z,46.97
2018-11-26T01:54:51.244Z,46.93
2018-11-26T01:57:19.242Z,48.33
2018-11-26T01:59:47.265Z,42.50
2018-11-26T02:02:15.220Z,47.10
2018-11-26T02:04:43.170Z,45.63
2018-11-26T02:07:11.234Z,45.70
2018-11-26T02:09:39.281Z,45.20
2018-11-26T02:12:07.256Z,45.97
2018-11-26T02:14:35.208Z,45.17
2018-11-26T02:17:03.299Z,44.20
2018-11-26T02:19:31.374Z,46.17
2018-11-26T02:21:59.344Z,47.90
2018-11-26T02:24:27.409Z,47.93
2018-11-26T02:26:55.374Z,46.40
2018-11-26T02:29:23.363Z,43.53
2018-11-26T02:31:51.318Z,47.70
2018-11-26T02:34:19.300Z,46.63
2018-11-26T02:36:47.242Z,48.30
2018-11-26T02:39:15.311Z,47.07
2018-11-26T02:41:43.302Z,47.87
2018-11-26T02:44:11.333Z,50.53
2018-11-26T02:46:39.334Z,45.92
2018-11-26T02:49:07.307Z,51.98
2018-11-26T02:51:35.281Z,50.70
2018-11-26T02:54:03.978Z,48.70
2018-11-26T02:56:32.055Z,47.70
2018-11-26T02:59:00.046Z,46.60
2018-11-26T03:01:29.704Z,50.10
2018-11-26T03:03:57.683Z,50.57
2018-11-26T03:06:25.639Z,52.53
2018-11-26T03:08:53.598Z,50.30
2018-11-26T03:11:21.601Z,50.17
2018-11-26T03:13:49.554Z,50.93
2018-11-26T03:16:17.514Z,51.63
2018-11-26T03:18:45.483Z,49.00
2018-11-26T03:21:13.451Z,52.50
2018-11-26T03:23:41.409Z,50.63
2018-11-26T03:26:09.391Z,50.17
2018-11-26T03:28:37.456Z,51.00
2018-11-26T03:31:06.941Z,48.27
2018-11-26T03:33:34.961Z,49.50
2018-11-26T03:36:02.921Z,49.53
2018-11-26T03:39:07.153Z,47.83
2018-11-26T03:41:35.193Z,42.43
2018-11-26T03:44:03.170Z,43.90
2018-11-26T03:46:31.126Z,45.23
2018-11-26T03:48:59.089Z,43.17
2018-11-26T03:51:27.073Z,44.58
2018-11-26T03:53:55.014Z,45.00
2018-11-26T03:56:23.049Z,42.67
2018-11-26T03:58:51.917Z,43.10
2018-11-26T04:01:19.943Z,44.10
2018-11-26T04:03:48.383Z,41.87
2018-11-26T04:06:17.208Z,43.50
2018-11-26T04:08:45.153Z,41.83
2018-11-26T04:11:13.165Z,42.47
2018-11-26T04:13:41.135Z,42.93
2018-11-26T04:16:09.100Z,41.13
2018-11-26T04:18:37.073Z,41.40
2018-11-26T04:21:05.590Z,39.60
2018-11-26T04:23:33.569Z,40.30
2018-11-26T04:26:01.594Z,41.50
2018-11-26T04:28:29.569Z,42.30
2018-11-26T04:30:57.521Z,42.87
2018-11-26T04:33:25.493Z,39.90
2018-11-26T04:35:53.490Z,39.05
2018-11-26T04:38:21.543Z,39.30
2018-11-26T04:40:49.537Z,41.50
2018-11-26T04:43:17.565Z,41.20
2018-11-26T04:45:45.539Z,35.90
2018-11-26T04:48:13.598Z,38.45
2018-11-26T04:50:41.605Z,41.10
2018-11-26T04:53:09.650Z,36.98
2018-11-26T04:55:37.897Z,39.85
2018-11-26T04:58:05.903Z,37.83
2018-11-26T05:00:33.874Z,38.55
2018-11-26T05:03:01.943Z,38.70
2018-11-26T05:05:29.926Z,40.90
2018-11-26T05:07:57.972Z,37.03
2018-11-26T05:10:26.184Z,39.17
2018-11-26T05:12:54.139Z,35.13
2018-11-26T05:15:22.185Z,36.73
2018-11-26T05:17:50.209Z,35.30
2018-11-26T05:20:18.178Z,38.73
2018-11-26T05:22:46.160Z,35.30
2018-11-26T05:25:14.170Z,37.35
2018-11-26T05:27:42.246Z,36.98
2018-11-26T05:30:11.251Z,34.23
2018-11-26T05:32:39.229Z,33.55
2018-11-26T05:35:08.391Z,35.35
2018-11-26T05:37:36.367Z,38.42
2018-11-26T05:40:06.194Z,37.25
2018-11-26T05:42:34.194Z,37.88
2018-11-26T05:45:02.162Z,37.88
2018-11-26T05:47:30.145Z,38.35
2018-11-26T05:49:58.133Z,36.83
2018-11-26T05:52:26.114Z,36.63
2018-11-26T05:54:54.073Z,37.73
2018-11-26T05:57:22.054Z,36.83
2018-11-26T05:59:50.021Z,33.78
2018-11-26T06:02:17.986Z,34.65
2018-11-26T06:04:45.965Z,32.00
2018-11-26T06:07:13.962Z,34.30
2018-11-26T06:09:41.948Z,36.38
2018-11-26T06:12:09.965Z,35.83
2018-11-26T06:14:37.931Z,36.17
2018-11-26T06:17:06.314Z,37.83
2018-11-26T06:19:34.281Z,37.55
2018-11-26T06:22:02.285Z,36.15
2018-11-26T06:24:30.334Z,36.80
2018-11-26T06:26:58.328Z,35.38
2018-11-26T06:29:26.368Z,33.90
2018-11-26T06:31:54.371Z,37.60
2018-11-26T06:34:22.367Z,36.17
2018-11-26T06:36:50.389Z,32.53
2018-11-26T06:39:18.708Z,33.40
2018-11-26T06:41:46.725Z,33.63
2018-11-26T06:44:14.701Z,31.80
2018-11-26T06:46:42.693Z,35.17
2018-11-26T06:49:10.683Z,32.00
2018-11-26T06:51:38.832Z,34.08
2018-11-26T06:54:07.006Z,35.30
2018-11-26T06:56:34.973Z,35.23
2018-11-26T06:59:03.012Z,34.83
2018-11-26T07:01:31.028Z,35.80
2018-11-26T07:03:58.989Z,33.15
2018-11-26T07:06:27.030Z,33.65
2018-11-26T07:08:55.016Z,33.28
2018-11-26T07:11:23.000Z,32.28
2018-11-26T07:13:50.955Z,31.20
2018-11-26T07:16:18.906Z,30.75
2018-11-26T07:18:46.977Z,31.68
2018-11-26T07:21:14.942Z,29.07
2018-11-26T07:23:42.981Z,30.85
2018-11-26T07:28:45.615Z,26.68
2018-11-26T07:31:13.613Z,27.95
2018-11-26T07:33:41.590Z,26.52
2018-11-26T07:36:11.447Z,26.42
2018-11-26T07:38:37.616Z,27.62
2018-11-26T07:41:06.079Z,26.70
2018-11-26T07:43:34.088Z,25.37
2018-11-26T07:46:02.090Z,23.05
2018-11-26T07:48:30.090Z,26.87
2018-11-26T07:50:58.121Z,26.50
2018-11-26T07:53:26.092Z,26.35
2018-11-26T07:55:54.079Z,27.07
2018-11-26T07:58:22.164Z,29.15
2018-11-26T08:00:50.225Z,28.02
2018-11-26T08:03:18.216Z,26.60
2018-11-26T08:05:46.151Z,27.85
2018-11-26T08:08:14.092Z,29.07
2018-11-26T08:10:42.098Z,26.97
2018-11-26T08:13:10.066Z,27.77
2018-11-26T08:15:38.065Z,30.52
2018-11-26T08:18:06.233Z,28.35
2018-11-26T08:20:34.232Z,29.27
2018-11-26T08:23:03.248Z,28.45
2018-11-26T08:25:31.227Z,30.62
2018-11-26T08:27:59.282Z,25.65
2018-11-26T08:30:27.786Z,29.20
2018-11-26T08:32:56.806Z,29.75
2018-11-26T08:35:25.007Z,29.72
2018-11-26T08:37:58.504Z,26.80
2018-11-26T08:40:34.790Z,29.97
2018-11-26T08:43:09.126Z,26.60
2018-11-26T08:45:37.701Z,29.20
2018-11-26T08:48:11.773Z,26.40
2018-11-26T08:50:39.953Z,27.55
2018-11-26T08:53:07.937Z,24.23
2018-11-26T08:55:35.928Z,27.20
2018-11-26T08:58:03.910Z,24.20
2018-11-26T09:00:31.905Z,23.10
2018-11-26T09:03:02.991Z,26.17
2018-11-26T09:05:40.431Z,26.05
2018-11-26T09:08:08.532Z,28.47
2018-11-26T09:10:36.522Z,28.07
2018-11-26T09:13:04.646Z,26.82
2018-11-26T09:15:32.618Z,25.90
2018-11-26T09:18:00.605Z,26.10
2018-11-26T09:20:28.879Z,24.92
2018-11-26T09:22:56.597Z,26.20
2018-11-26T09:25:24.597Z,23.45
2018-11-26T09:27:52.610Z,24.18
2018-11-26T09:30:20.613Z,24.50
2018-11-26T09:32:48.587Z,24.67
2018-11-26T09:35:16.778Z,26.62
2018-11-26T09:37:44.796Z,28.05
2018-11-26T09:40:14.893Z,25.95
2018-11-26T09:42:43.052Z,27.13
2018-11-26T09:45:14.385Z,25.17
2018-11-26T09:47:42.342Z,27.98
2018-11-26T09:50:15.099Z,27.13
2018-11-26T09:52:43.126Z,29.00
2018-11-26T09:55:11.840Z,28.55
2018-11-26T09:57:39.818Z,28.30
2018-11-26T10:00:10.889Z,26.55
2018-11-26T10:02:39.389Z,26.17
2018-11-26T10:05:12.539Z,25.85
2018-11-26T10:07:40.540Z,24.65
2018-11-26T10:10:10.020Z,25.60
2018-11-26T10:12:38.626Z,26.35
2018-11-26T10:15:21.212Z,27.15
2018-11-26T10:17:49.204Z,27.75
2018-11-26T10:20:17.266Z,27.00
2018-11-26T10:22:45.715Z,25.48
2018-11-26T10:25:14.966Z,28.00
2018-11-26T10:27:42.964Z,27.05
2018-11-26T10:30:13.926Z,27.82
2018-11-26T10:32:42.402Z,27.77
2018-11-26T10:35:13.362Z,28.00
2018-11-26T10:37:41.373Z,27.15
2018-11-26T10:40:19.411Z,26.62
2018-11-26T10:42:47.395Z,26.20
2018-11-26T10:45:19.486Z,27.02
2018-11-26T10:47:47.515Z,27.90
2018-11-26T10:50:16.608Z,29.07
2018-11-26T10:52:45.930Z,26.15
2018-11-26T10:55:16.346Z,24.65
2018-11-26T10:57:44.328Z,27.30
2018-11-26T11:00:19.175Z,27.45
2018-11-26T11:02:47.185Z,26.48
2018-11-26T11:05:15.276Z,26.52
2018-11-26T11:07:43.277Z,25.95
2018-11-26T11:10:17.382Z,27.95
2018-11-26T11:12:45.389Z,25.40
2018-11-26T11:15:13.613Z,25.10
2018-11-26T11:17:41.640Z,31.00
2018-11-26T11:20:13.993Z,25.45
2018-11-26T11:22:42.014Z,28.17
2018-11-26T11:25:12.245Z,27.10
2018-11-26T11:27:40.222Z,26.90
2018-11-26T11:30:30.095Z,24.67
2018-11-26T11:32:58.088Z,24.80
2018-11-26T11:35:26.146Z,23.22
2018-11-26T11:37:54.727Z,24.35
2018-11-26T11:40:27.077Z,23.98
2018-11-26T11:42:55.372Z,26.95
2018-11-26T11:45:23.794Z,24.35
2018-11-26T11:47:51.807Z,25.92
2018-11-26T11:50:20.611Z,28.12
2018-11-26T11:52:48.994Z,27.55
2018-11-26T11:55:18.269Z,27.50
2018-11-26T11:57:46.245Z,26.55
2018-11-26T12:00:24.051Z,27.35
2018-11-26T12:02:52.025Z,26.10
2018-11-26T12:05:20.099Z,29.50
2018-11-26T12:07:48.062Z,26.10
2018-11-26T12:10:16.131Z,27.00
2018-11-26T12:12:44.089Z,26.73
2018-11-26T12:15:13.591Z,27.70
2018-11-26T12:17:42.599Z,28.38
2018-11-26T12:20:11.671Z,27.25
2018-11-26T12:22:39.963Z,27.35
2018-11-26T12:25:11.527Z,28.33
2018-11-26T12:27:39.603Z,30.55
2018-11-26T12:30:27.633Z,30.20
2018-11-26T12:32:55.914Z,28.60
2018-11-26T12:35:23.906Z,30.25
2018-11-26T12:37:51.966Z,31.00
2018-11-26T12:40:22.990Z,29.87
2018-11-26T12:42:52.568Z,30.87
2018-11-26T12:45:23.548Z,30.95
2018-11-26T12:47:52.253Z,31.23
2018-11-26T12:50:20.592Z,29.87
2018-11-26T12:52:48.795Z,29.72
2018-11-26T12:55:17.785Z,31.10
2018-11-26T12:57:46.738Z,29.35
2018-11-26T13:00:16.862Z,29.97
2018-11-26T13:02:46.167Z,29.82
2018-11-26T13:05:15.574Z,31.50
2018-11-26T13:07:43.599Z,29.80
2018-11-26T13:10:14.529Z,28.75
2018-11-26T13:12:42.679Z,30.83
2018-11-26T13:15:18.485Z,29.98
2018-11-26T13:17:46.535Z,29.10
2018-11-26T13:20:16.580Z,27.37
2018-11-26T13:22:44.886Z,27.33
2018-11-26T13:25:14.276Z,26.30
2018-11-26T13:27:51.665Z,28.55
2018-11-26T13:30:23.872Z,29.37
2018-11-26T13:32:53.125Z,26.90
2018-11-26T13:35:21.097Z,27.75
2018-11-26T13:37:49.165Z,26.87
2018-11-26T13:40:17.870Z,26.70
2018-11-26T13:42:46.319Z,27.62
2018-11-26T13:45:19.523Z,26.35
2018-11-26T13:47:47.603Z,27.73
2018-11-26T13:50:23.013Z,25.65
2018-11-26T13:52:50.102Z,27.50
2018-11-26T13:55:18.083Z,27.50
2018-11-26T13:57:46.312Z,27.83
2018-11-26T14:00:15.472Z,26.90
2018-11-26T14:02:43.471Z,28.30
2018-11-26T14:05:13.725Z,26.00
2018-11-26T14:07:41.947Z,26.33
2018-11-26T14:10:12.203Z,25.35
2018-11-26T14:12:40.815Z,26.20
2018-11-26T14:15:12.044Z,27.40
2018-11-26T14:17:40.251Z,26.73
2018-11-26T14:20:10.883Z,26.67
2018-11-26T14:22:39.066Z,28.13
2018-11-26T14:25:11.573Z,27.22
2018-11-26T14:27:39.985Z,28.95
2018-11-26T14:30:11.557Z,26.33
2018-11-26T14:32:39.667Z,26.80
2018-11-26T14:35:08.271Z,24.52
2018-11-26T14:37:36.314Z,25.83
2018-11-26T14:40:06.566Z,26.90
2018-11-26T14:42:34.667Z,25.55
2018-11-26T14:45:02.622Z,25.25
2018-11-26T14:47:30.586Z,26.75
2018-11-26T14:49:58.637Z,26.42
2018-11-26T14:52:26.702Z,24.50
2018-11-26T14:54:54.679Z,22.87
2018-11-26T14:57:22.750Z,23.75
2018-11-26T14:59:50.764Z,27.98
2018-11-26T15:02:18.797Z,26.17
2018-11-26T15:04:46.791Z,25.85
2018-11-26T15:07:14.801Z,27.07
2018-11-26T15:09:42.831Z,27.95
2018-11-26T15:12:11.282Z,25.50
2018-11-26T15:14:39.352Z,26.45
2018-11-26T15:17:07.422Z,24.70
2018-11-26T15:19:35.388Z,25.60
2018-11-26T15:22:03.401Z,25.80
2018-11-26T15:24:31.363Z,25.77
2018-11-26T15:26:59.432Z,26.33
2018-11-26T15:29:28.068Z,26.07
2018-11-26T15:31:56.067Z,25.55
2018-11-26T15:34:24.031Z,25.90
2018-11-26T15:36:52.038Z,24.20
2018-11-26T15:39:20.005Z,25.27
2018-11-26T15:41:48.043Z,24.00
2018-11-26T15:44:16.034Z,24.80
2018-11-26T15:46:44.041Z,23.50
2018-11-26T15:49:12.156Z,25.03
2018-11-26T15:51:40.144Z,23.15
2018-11-26T15:54:08.119Z,23.53
2018-11-26T15:56:36.083Z,24.15
2018-11-26T15:59:04.067Z,25.93
2018-11-26T16:01:32.079Z,24.15
2018-11-26T16:04:00.080Z,23.63
2018-11-26T16:06:28.210Z,24.67
2018-11-26T16:08:56.395Z,22.52
2018-11-26T16:11:24.455Z,23.07
2018-11-26T16:13:52.431Z,23.15
2018-11-26T16:16:20.421Z,23.10
2018-11-26T16:18:48.388Z,22.80
2018-11-26T16:21:22.754Z,23.37
2018-11-26T16:23:50.777Z,23.00
2018-11-26T16:26:18.745Z,21.80
2018-11-26T16:28:46.707Z,22.00
2018-11-26T16:31:14.685Z,21.90
2018-11-26T16:33:42.688Z,22.90
2018-11-26T16:36:10.683Z,23.50
2018-11-26T16:38:38.877Z,22.30
2018-11-26T16:41:06.871Z,22.20
2018-11-26T16:43:34.833Z,22.33
2018-11-26T16:46:02.829Z,21.85
2018-11-26T16:48:30.772Z,21.10
2018-11-26T16:50:58.722Z,20.47
2018-11-26T16:53:26.699Z,20.50
2018-11-26T16:55:54.739Z,23.18
2018-11-26T16:58:22.842Z,21.20
2018-11-26T17:00:50.839Z,21.07
2018-11-26T17:03:18.909Z,21.03
2018-11-26T17:05:46.906Z,22.27
2018-11-26T17:08:15.719Z,21.45
2018-11-26T17:10:44.214Z,21.23
2018-11-26T17:13:13.367Z,21.40
2018-11-26T17:15:41.586Z,21.45
2018-11-26T17:18:09.660Z,21.57
2018-11-26T17:20:38.130Z,21.20
2018-11-26T17:23:06.776Z,21.05
2018-11-26T17:25:34.762Z,21.47
2018-11-26T17:28:02.774Z,22.50
2018-11-26T17:30:31.410Z,21.73
2018-11-26T17:33:00.961Z,21.15
2018-11-26T17:35:29.628Z,22.52
2018-11-26T17:37:57.691Z,20.17
2018-11-26T17:40:25.997Z,23.40
2018-11-26T17:42:54.410Z,23.20
2018-11-26T17:45:23.099Z,21.10
2018-11-26T17:47:53.348Z,21.85
2018-11-26T17:50:24.799Z,22.32
2018-11-26T17:52:52.807Z,22.77
2018-11-26T17:55:20.979Z,24.00
2018-11-26T17:57:48.953Z,22.58
2018-11-26T18:00:19.575Z,21.60
2018-11-26T18:02:47.652Z,21.70
2018-11-26T18:05:16.848Z,23.20
2018-11-26T18:07:45.848Z,20.90
2018-11-26T18:10:14.900Z,23.15
2018-11-26T18:12:42.890Z,23.10
2018-11-26T18:15:12.219Z,21.87
2018-11-26T18:17:40.347Z,22.52
2018-11-26T18:20:21.223Z,22.25
2018-11-26T18:22:50.802Z,21.57
2018-11-26T18:25:19.411Z,21.60
2018-11-26T18:27:54.249Z,21.50
2018-11-26T18:30:27.240Z,22.10
2018-11-26T18:32:55.292Z,22.40
2018-11-26T18:35:23.250Z,22.43
2018-11-26T18:37:51.262Z,23.05
2018-11-26T18:40:19.303Z,23.22
2018-11-26T18:42:47.375Z,24.33
2018-11-26T18:45:16.715Z,25.15
2018-11-26T18:47:45.352Z,23.80
2018-11-26T18:50:16.398Z,24.37
2018-11-26T18:52:44.994Z,23.45
2018-11-26T18:55:12.997Z,23.00
2018-11-26T18:57:41.429Z,25.10
2018-11-26T19:00:13.094Z,22.87
2018-11-26T19:02:41.820Z,22.73
2018-11-26T19:05:10.043Z,22.42
2018-11-26T19:07:38.209Z,21.70
2018-11-26T19:10:11.863Z,21.90
2018-11-26T19:12:40.028Z,22.43
2018-11-26T19:15:15.739Z,21.77
2018-11-26T19:17:43.755Z,21.97
2018-11-26T19:20:12.232Z,21.82
2018-11-26T19:22:40.566Z,21.80
2018-11-26T19:25:09.928Z,20.67
2018-11-26T19:27:37.880Z,20.40
2018-11-26T19:30:09.094Z,19.23
2018-11-26T19:32:37.126Z,21.05
2018-11-26T19:35:06.792Z,18.82
2018-11-26T19:37:35.864Z,18.65
2018-11-26T19:40:07.630Z,17.80
2018-11-26T19:42:35.594Z,20.43
2018-11-26T19:45:03.649Z,18.42
2018-11-26T19:47:31.622Z,18.53
2018-11-26T19:50:02.349Z,18.32
2018-11-26T19:52:27.612Z,19.15
2018-11-26T19:54:55.629Z,17.77
2018-11-26T19:57:23.607Z,18.30
2018-11-26T19:59:51.595Z,18.25
2018-11-26T20:02:19.564Z,17.77
2018-11-26T20:04:51.702Z,17.62
2018-11-26T20:07:19.691Z,17.82
2018-11-26T20:09:47.708Z,18.20
2018-11-26T20:12:16.542Z,18.27
2018-11-26T20:14:44.692Z,18.17
2018-11-26T20:17:12.719Z,17.48
2018-11-26T20:19:40.741Z,16.90
2018-11-26T20:22:08.744Z,18.30
2018-11-26T20:24:37.692Z,18.20
2018-11-26T20:27:05.763Z,17.32
2018-11-26T20:29:33.763Z,17.45
2018-11-26T20:32:01.738Z,17.80
2018-11-26T20:34:30.075Z,18.37
2018-11-26T20:36:58.091Z,17.60
2018-11-26T20:39:26.068Z,18.40
2018-11-26T20:41:54.073Z,17.30
2018-11-26T20:44:22.268Z,17.70
2018-11-26T20:46:50.268Z,18.30
2018-11-26T20:49:18.239Z,19.10
2018-11-26T20:51:46.225Z,17.97
2018-11-26T20:54:14.240Z,17.13
2018-11-26T20:56:42.226Z,16.75
2018-11-26T20:59:10.261Z,15.60
2018-11-26T21:01:38.258Z,16.77
2018-11-26T21:04:06.438Z,15.63
2018-11-26T21:06:34.425Z,15.60
2018-11-26T21:09:02.437Z,16.00
2018-11-26T21:11:30.559Z,16.35
2018-11-26T21:13:58.538Z,15.85
2018-11-26T21:16:26.553Z,16.50
2018-11-26T21:18:54.533Z,16.52
2018-11-26T21:21:22.530Z,16.35
2018-11-26T21:23:50.487Z,16.50
2018-11-26T21:26:18.455Z,16.90
2018-11-26T21:28:46.412Z,15.95
2018-11-26T21:31:14.479Z,16.23
2018-11-26T21:33:42.442Z,16.77
2018-11-26T21:36:10.410Z,16.52
2018-11-26T21:38:39.744Z,16.10
2018-11-26T21:41:07.754Z,17.33
2018-11-26T21:43:35.758Z,17.00
2018-11-26T21:46:03.951Z,17.27
2018-11-26T21:48:31.948Z,17.83
2018-11-26T21:50:59.914Z,17.70
2018-11-26T21:53:27.903Z,17.43
2018-11-26T21:55:55.918Z,17.70
2018-11-26T21:58:23.879Z,16.15
2018-11-26T22:00:53.621Z,16.60
2018-11-26T22:03:21.604Z,17.30
2018-11-26T22:05:49.586Z,17.90
2018-11-26T22:08:17.576Z,18.30
2018-11-26T22:10:45.591Z,19.77
2018-11-26T22:13:16.303Z,16.57
2018-11-26T22:15:44.367Z,17.00
2018-11-26T22:18:12.343Z,16.42
2018-11-26T22:20:40.317Z,15.18
2018-11-26T22:23:09.127Z,16.52
2018-11-26T22:25:37.354Z,16.60
2018-11-26T22:28:08.027Z,15.15
2018-11-26T22:30:36.910Z,16.45
2018-11-26T22:33:05.101Z,15.10
2018-11-26T22:35:33.094Z,15.25
2018-11-26T22:38:01.224Z,15.63
2018-11-26T22:40:29.234Z,15.10
2018-11-26T22:42:57.193Z,14.60
2018-11-26T22:45:28.156Z,15.08
2018-11-26T22:47:59.630Z,14.60
2018-11-26T22:50:27.590Z,16.12
2018-11-26T22:52:55.562Z,15.13
2018-11-26T22:55:23.633Z,15.32
2018-11-26T22:57:51.666Z,14.00
2018-11-26T23:00:29.988Z,13.97
2018-11-26T23:02:59.259Z,14.10
2018-11-26T23:05:27.499Z,15.05
2018-11-26T23:07:55.467Z,13.88
2018-11-26T23:10:23.462Z,14.73
2018-11-26T23:12:51.450Z,13.90
2018-11-26T23:15:19.620Z,14.68
2018-11-26T23:17:48.059Z,14.77
2018-11-26T23:20:18.183Z,14.60
2018-11-26T23:22:46.253Z,14.23
2018-11-26T23:25:15.189Z,13.70
2018-11-26T23:27:43.281Z,14.07
2018-11-26T23:30:31.021Z,13.63
2018-11-26T23:33:02.010Z,13.50
2018-11-26T23:35:29.965Z,13.33
2018-11-26T23:37:57.965Z,13.20
2018-11-26T23:40:25.919Z,14.13
2018-11-26T23:42:53.875Z,13.03
2018-11-26T23:45:23.891Z,13.43
2018-11-26T23:47:51.883Z,13.33
2018-11-26T23:50:19.895Z,13.00
2018-11-26T23:52:47.984Z,12.50
2018-11-26T23:55:17.887Z,13.57
2018-11-26T23:57:45.891Z,13.50
